Tampico, México

3:58 PM CDT en Agosto 27, 2014 (GMT -0500)
Gen Francisco Javier Mina | Change Station
CLOSE
Current Station
Aeropuerto
Location: Tampico,
Altura: 79 ft
Estaciones meteorológicas cercanas

Alt 79 ft 22.30 °N, 97.87 °W | Updated 18 minutes ago

Scattered Clouds
Nubes dispersas
91 ° F
Sensación térmica 98 ° F
N
12
Viento Variable Viento desde ESE

Hoy
Alta -- | Baja -- ° F
--% Posibilidad de precipitaciones
Ayer
Alta -- | Baja -- ° F
Precip. -- pul
7:12 AM 7:52 PM
Creciente, 5% visible
Presión 29.88 pul
Visibilidad 10.0 Millas
Nubes Nubes dispersas 20000 ft
Índice de calor 98 ° F
Punto de rocío 72 ° F
Humedad 52%
Precipitaciones 0.00 pul
Espesor de la nieve No disponible.
UV 7 de una escala de 12
Polen No disponible.
Calidad del aire No disponible.
Flu Activity No disponible.
METAR MMTM 272040Z 11010KT 10SM SCT200 33/22 A2988 RMK SLP118 57003 953 8/001

More Conditions Fewer Conditions

Presión 29.88 pul
Visibilidad 10.0 Millas
Nubes Nubes dispersas 20000 ft
Índice de calor 98 ° F
Punto de rocío 72 ° F
Humedad 52%
Precipitaciones 0.00 pul
Espesor de la nieve No disponible.
UV 7 de una escala de 12
Polen No disponible.
Calidad del aire No disponible.
Flu Activity No disponible.
METAR MMTM 272040Z 11010KT 10SM SCT200 33/22 A2988 RMK SLP118 57003 953 8/001

More Conditions Fewer Conditions

10-Day Weather Forecast

Almanac

Astronomía

Aug. 27, 2014 Salida Puesta
Hora real 7:12 AM CDT 7:52 PM CDT
Crepúsculo civil 6:49 AM CDT 8:15 PM CDT
Crepúsculo náutico 6:23 AM CDT 8:42 PM CDT
Crepúsculo astronómico 5:55 AM CDT 9:09 PM CDT
Luna 8:51 AM CDT 9:07 PM CDT
Horas de luz 13h 25m
Horas de luz
12h 40m
Tomorrow will be 1m 13s shorter.
Creciente, 5% of the Moon is Illuminated
Hoy
Creciente
Sep 2
Cuarto creciente
Sep 8
Luna llena
Sep 15
Cuarto menguante
Sep 24
Nueva

Extremos de hoy

Máximos del país Bajas del país

Community

WunderPhotos

Upload Photos

1,747,781 ¡fotos cargadas!

Nearby

Calidad del aire

Not available.

Grosos de nieve

Not available.

Actividad de terremotos

Ciudad Distance Mag. Tiempo y dato
No hay informes recientes de la actividad sísmica.
Magnitud mínima muestra es 2,5.

Temperaturas de aguas costeras

Lugar Temperatura
Sin partes meteorológicos de las estaciones

Estaciones meteorológicas cercanas